Hlavní strana
METAR-TAF:

METAR-TAF

Letiště :

Göteborg-Landvetter, Švédsko

zeměpisná šířka: 57-40N, zeměpisná délka: 012-18E, výška: 169 m

Aktuální stav počasí

Zpráva byla vytvořena před 29 minutami, v 11:50 UTC
Východojihovýchodní vítr 14 kt, proměnlivý mezi východním a jihovýchodním
Teplota 18°C
Vlhkost vzduchu 26%
Tlak 1021 hPa
Viditelnost 10 km a více
Žádná oblačnost pod 1500 m, nevyskytují se cumulonimby.

METAR: ESGG 231150Z 11014KT 080V140 CAVOK 18/M02 Q1021

Čas: 14:19 (12:19 UTC)

Předpověď počasí

Zpráva byla vytvořena před 49 minutami, v 11:30 UTC
Předpověď platná od 23 v 12 UTC do 24 v 12 UTC
Východojihovýchodní vítr 15 kt s nárazy do 25 kt
Viditelnost 10 km a více
Žádná oblačnost pod 1500 m, nevyskytují se cumulonimby.
Změna
od 23 v 17 UTC do 23 v 19 UTC
Východojihovýchodní vítr 10 kt
Změna
od 24 v 07 UTC do 24 v 09 UTC
Jihovýchodní vítr 15 kt s nárazy do 25 kt

TAF: ESGG 231130Z 2312/2412 12015G25KT CAVOK BECMG 2317/2319 11010KT BECMG 2407/2409 14015G25KT

Stav a předpovědi počasí z více než 4 000 letišť (zprávy METAR a TAF).

Červené a žluté tečky na mapě představují dostupné meteorologické stanice.

Když kurzor umístíte na tečku, zobrazí se název stanice.

Pak kliknutím zobrazíte stav a předpověď počasí.

Chcete-li změnit mapu, kliknutím na zelené tlačítko se znaménkem +mapu přiblížíte, kliknutím na zelené tlačítko se znaménkem – mapu oddálíte a kliknutím na zelené šipky přejdete na sousední mapy.


METAR-TAF: